Weather at Pago Pago International Airport

Public forecast

Using degrees Celsius for public forecast. Weather courtesy of forecast.io.

Current aviation weather report (METAR) for Pago Pago International Airport

Retrieved 2022/06/29 20:50 UTC (38 minutes ago):

NSTU 292050Z 10016KT 12SM SCT019 BKN040 29/24 A2997 RMK SLP149 8/800 T02850243 53015

Aviation forecast (TAF) for Pago Pago International Airport

Retrieved 2022/06/29 18:36 UTC (3 hours ago):

TAF NSTU 291732Z 2918/3018 10015KT P6SM VCSH SCT020 BKN040 BKN100